Hlavní strana
METAR-TAF:

METAR-TAF

Letiště :

La Palma, Španělsko

zeměpisná šířka: 28-37N, zeměpisná délka: 017-45W, výška: 29 m

Aktuální stav počasí

Zpráva byla vytvořena před 24 minutami, v 19:30 UTC
Severovýchodní vítr 6 kt, proměnlivý mezi severním a východoseverovýchodním
Teplota 18°C
Vlhkost vzduchu 68%
Tlak 1024 hPa
Viditelnost 10 km a více
Skoro jasno ve výšce 3500 ft
Oblačno až skoro zataženo ve výšce 5500 ft

METAR: GCLA 251930Z 04006KT 360V070 9999 FEW035 BKN055 18/12 Q1024

Čas: 19:54 (19:54 UTC)

Předpověď počasí

Zpráva byla vytvořena před 1 hodinou a 11 minutami, v 18:43 UTC
Předpověď platná od 25 v 18 UTC do 26 v 15 UTC
Severozápadní vítr 10 kt
Viditelnost 10 km a více
Polojasno ve výšce 3000 ft
Pravděpodobnost 30% :
Dočasný
od 25 v 18 UTC do 25 v 20 UTC
Severoseverovýchodní vítr 6 kt
Změna
od 26 v 12 UTC do 26 v 14 UTC
Severoseverovýchodní vítr 5 kt

TAF: GCLA 251843Z 2518/2615 32010KT 9999 SCT030 TX21/2615Z TN14/2606Z PROB30 TEMPO 2518/2520 03006KT BECMG 2612/2614 02005KT

Stav a předpovědi počasí z více než 4 000 letišť (zprávy METAR a TAF).

Červené a žluté tečky na mapě představují dostupné meteorologické stanice.

Když kurzor umístíte na tečku, zobrazí se název stanice.

Pak kliknutím zobrazíte stav a předpověď počasí.

Chcete-li změnit mapu, kliknutím na zelené tlačítko se znaménkem +mapu přiblížíte, kliknutím na zelené tlačítko se znaménkem – mapu oddálíte a kliknutím na zelené šipky přejdete na sousední mapy.


METAR-TAF: